createdAt,value
2024-03-12T00:02:12.880Z,100038.50
2024-03-12T00:04:42.043Z,100044.34
2024-03-12T00:07:11.068Z,100042.53
2024-03-12T00:09:39.578Z,100048.56
2024-03-12T00:12:08.410Z,100044.31
2024-03-12T00:14:36.962Z,100044.19
2024-03-12T00:17:05.265Z,100046.16
2024-03-12T00:19:34.616Z,100045.16
2024-03-12T00:22:03.324Z,100051.84
2024-03-12T00:24:31.914Z,100056.19
2024-03-12T00:27:00.278Z,100052.84
2024-03-12T00:29:29.178Z,100049.00
2024-03-12T00:31:59.063Z,100054.25
2024-03-12T00:34:27.488Z,100061.84
2024-03-12T00:36:55.870Z,100058.44
2024-03-12T00:39:26.543Z,100057.53
2024-03-12T00:41:56.686Z,100065.13
2024-03-12T00:44:25.689Z,100072.47
2024-03-12T00:46:54.455Z,100061.88
2024-03-12T00:49:23.082Z,100055.66
2024-03-12T00:51:51.480Z,100053.41
2024-03-12T00:54:19.796Z,100065.97
2024-03-12T00:56:50.815Z,100065.22
2024-03-12T00:59:19.796Z,100061.06
2024-03-12T01:01:52.178Z,100065.13
2024-03-12T01:04:20.570Z,100060.06
2024-03-12T01:06:50.542Z,100068.50
2024-03-12T01:09:19.019Z,100072.94
2024-03-12T01:11:48.408Z,100075.19
2024-03-12T01:14:18.439Z,100069.34
2024-03-12T01:16:46.788Z,100078.63
2024-03-12T01:19:15.274Z,100078.31
2024-03-12T01:21:43.674Z,100075.69
2024-03-12T01:24:13.834Z,100092.88
2024-03-12T01:26:43.147Z,100086.09
2024-03-12T01:29:11.498Z,100089.09
2024-03-12T01:31:42.237Z,100093.06
2024-03-12T01:34:11.825Z,100085.25
2024-03-12T01:36:41.163Z,100090.53
2024-03-12T01:39:09.869Z,100089.31
2024-03-12T01:41:45.881Z,100089.75
2024-03-12T01:44:14.749Z,100089.00
2024-03-12T01:46:43.742Z,100089.91
2024-03-12T01:49:13.904Z,100096.72
2024-03-12T01:51:45.791Z,100098.25
2024-03-12T01:54:15.191Z,100107.84
2024-03-12T01:56:43.579Z,100105.91
2024-03-12T01:59:13.046Z,100104.94
2024-03-12T02:01:41.561Z,100107.19
2024-03-12T02:04:15.997Z,100105.38
2024-03-12T02:06:44.426Z,100108.03
2024-03-12T02:09:13.451Z,100101.88
2024-03-12T02:11:41.887Z,100108.19
2024-03-12T02:14:10.228Z,100107.25
2024-03-12T02:16:40.012Z,100098.44
2024-03-12T02:19:09.635Z,100097.41
2024-03-12T02:21:38.444Z,100099.25
2024-03-12T02:24:07.607Z,100091.59
2024-03-12T02:26:35.987Z,100098.59
2024-03-12T02:29:07.407Z,100102.09
2024-03-12T02:31:37.278Z,100097.63
2024-03-12T02:34:05.759Z,100100.72
2024-03-12T02:36:38.182Z,100108.75
2024-03-12T02:39:07.827Z,100105.16
2024-03-12T02:41:36.557Z,100113.38
2024-03-12T02:44:05.159Z,100114.28
2024-03-12T02:46:33.529Z,100125.56
2024-03-12T02:49:03.848Z,100130.06
2024-03-12T02:51:32.440Z,100133.00
2024-03-12T02:54:00.877Z,100130.06
2024-03-12T02:56:29.266Z,100133.84
2024-03-12T02:58:57.631Z,100130.44
2024-03-12T03:01:26.737Z,100134.59
2024-03-12T03:03:58.678Z,100139.53
2024-03-12T03:06:27.211Z,100127.09
2024-03-12T03:08:55.513Z,100141.06
2024-03-12T03:11:23.900Z,100144.50
2024-03-12T03:13:52.274Z,100134.84
2024-03-12T03:16:21.856Z,100136.22
2024-03-12T03:18:50.587Z,100144.50
2024-03-12T03:21:18.896Z,100142.38
2024-03-12T03:23:47.197Z,100143.53
2024-03-12T03:26:15.981Z,100142.38
2024-03-12T03:28:44.292Z,100138.22
2024-03-12T03:31:12.826Z,100144.59
2024-03-12T03:33:44.597Z,100151.91
2024-03-12T03:36:16.121Z,100152.38
2024-03-12T03:38:45.013Z,100150.56
2024-03-12T03:41:13.330Z,100149.03
2024-03-12T03:43:44.236Z,100136.94
2024-03-12T03:46:12.755Z,100151.50
2024-03-12T03:48:41.176Z,100152.22
2024-03-12T03:51:09.777Z,100141.03
2024-03-12T03:53:38.234Z,100146.84
2024-03-12T03:56:14.100Z,100138.22
2024-03-12T03:58:44.793Z,100146.72
2024-03-12T04:01:15.091Z,100157.81
2024-03-12T04:03:43.638Z,100154.00
2024-03-12T04:06:12.161Z,100155.81
2024-03-12T04:08:40.558Z,100163.63
2024-03-12T04:11:09.839Z,100172.50
2024-03-12T04:13:40.690Z,100163.31
2024-03-12T04:16:09.101Z,100171.44
2024-03-12T04:18:37.757Z,100177.22
2024-03-12T04:21:06.968Z,100178.47
2024-03-12T04:23:35.306Z,100192.06
2024-03-12T04:26:04.848Z,100180.75
2024-03-12T04:28:33.220Z,100182.03
2024-03-12T04:31:01.773Z,100182.75
2024-03-12T04:33:30.146Z,100185.06
2024-03-12T04:35:58.481Z,100193.22
2024-03-12T04:38:26.906Z,100192.16
2024-03-12T04:40:55.345Z,100196.72
2024-03-12T04:43:23.693Z,100198.75
2024-03-12T04:45:52.004Z,100199.06
2024-03-12T04:48:22.730Z,100207.03
2024-03-12T04:50:51.130Z,100210.91
2024-03-12T04:53:22.366Z,100216.84
2024-03-12T04:55:52.207Z,100217.69
2024-03-12T04:58:20.626Z,100218.63
2024-03-12T05:00:49.143Z,100215.66
2024-03-12T05:03:18.610Z,100231.63
2024-03-12T05:05:47.283Z,100231.81
2024-03-12T05:08:16.023Z,100234.53
2024-03-12T05:10:45.189Z,100235.38
2024-03-12T05:13:13.617Z,100239.19
2024-03-12T05:15:42.016Z,100248.19
2024-03-12T05:18:10.452Z,100245.38
2024-03-12T05:20:38.782Z,100240.53
2024-03-12T05:23:11.287Z,100247.16
2024-03-12T05:25:40.654Z,100257.56
2024-03-12T05:28:11.090Z,100254.06
2024-03-12T05:30:42.198Z,100260.59
2024-03-12T05:33:13.541Z,100261.84
2024-03-12T05:35:48.785Z,100261.47
2024-03-12T05:38:33.916Z,100261.28
2024-03-12T05:41:16.303Z,100274.28
2024-03-12T05:44:03.307Z,100272.88
2024-03-12T05:46:50.478Z,100270.69
2024-03-12T05:49:20.738Z,100278.84
2024-03-12T05:51:49.357Z,100277.84
2024-03-12T05:54:17.785Z,100280.03
2024-03-12T05:56:56.332Z,100280.81
2024-03-12T05:59:27.101Z,100290.84
2024-03-12T06:01:55.551Z,100289.91
2024-03-12T06:04:24.062Z,100285.16
2024-03-12T06:06:52.682Z,100285.13
2024-03-12T06:09:23.712Z,100290.72
2024-03-12T06:11:52.828Z,100294.50
2024-03-12T06:14:21.480Z,100300.91
2024-03-12T06:16:49.848Z,100303.28
2024-03-12T06:19:18.411Z,100301.16
2024-03-12T06:21:47.202Z,100311.78
2024-03-12T06:24:15.607Z,100305.19
2024-03-12T06:26:45.009Z,100312.16
2024-03-12T06:29:15.114Z,100319.88
2024-03-12T06:31:43.910Z,100321.16
2024-03-12T06:34:12.309Z,100330.97
2024-03-12T06:36:41.248Z,100324.22
2024-03-12T06:39:18.740Z,100322.31
2024-03-12T06:41:47.821Z,100329.13
2024-03-12T06:44:18.206Z,100331.31
2024-03-12T06:46:46.901Z,100331.41
2024-03-12T06:49:15.406Z,100328.69
2024-03-12T06:51:48.204Z,100341.44
2024-03-12T06:54:16.772Z,100337.09
2024-03-12T06:56:47.525Z,100345.50
2024-03-12T06:59:16.383Z,100336.50
2024-03-12T07:01:46.499Z,100340.50
2024-03-12T07:04:15.102Z,100346.91
2024-03-12T07:06:44.217Z,100352.97
2024-03-12T07:09:23.651Z,100353.63
2024-03-12T07:11:52.171Z,100360.19
2024-03-12T07:14:30.611Z,100360.81
2024-03-12T07:16:59.152Z,100367.00
2024-03-12T07:19:27.622Z,100369.66
2024-03-12T07:21:56.054Z,100371.66
2024-03-12T07:24:24.453Z,100379.28
2024-03-12T07:26:52.820Z,100385.16
2024-03-12T07:29:21.155Z,100385.19
2024-03-12T07:31:50.227Z,100394.19
2024-03-12T07:34:18.894Z,100385.78
2024-03-12T07:36:47.485Z,100397.25
2024-03-12T07:39:31.584Z,100394.28
2024-03-12T07:42:00.516Z,100394.78
2024-03-12T07:44:28.895Z,100400.00
2024-03-12T07:46:57.903Z,100401.91
2024-03-12T07:49:26.555Z,100400.28
2024-03-12T07:51:54.959Z,100400.88
2024-03-12T07:54:23.344Z,100402.13
2024-03-12T07:56:51.859Z,100400.38
2024-03-12T07:59:23.814Z,100404.94
2024-03-12T08:01:55.477Z,100406.94
2024-03-12T08:04:27.221Z,100407.13
2024-03-12T08:06:56.143Z,100415.63
2024-03-12T08:09:24.678Z,100409.69
2024-03-12T08:12:18.835Z,100416.41
2024-03-12T08:14:47.115Z,100416.13
2024-03-12T08:17:16.206Z,100418.06
2024-03-12T08:19:45.615Z,100411.72
2024-03-12T08:22:14.376Z,100420.72
2024-03-12T08:24:42.854Z,100422.50
2024-03-12T08:27:15.036Z,100425.22
2024-03-12T08:29:44.710Z,100420.72
2024-03-12T08:32:13.182Z,100423.38
2024-03-12T08:34:42.853Z,100429.94
2024-03-12T08:37:13.044Z,100433.22
2024-03-12T08:39:41.975Z,100433.31
2024-03-12T08:42:11.212Z,100433.41
2024-03-12T08:44:39.931Z,100443.13
2024-03-12T08:47:09.796Z,100445.91
2024-03-12T08:49:38.838Z,100438.34
2024-03-12T08:52:07.520Z,100436.56
2024-03-12T08:54:36.189Z,100448.75
2024-03-12T08:57:04.817Z,100452.34
2024-03-12T08:59:33.213Z,100448.41
2024-03-12T09:02:01.876Z,100448.50
2024-03-12T09:04:31.814Z,100453.81
2024-03-12T09:07:01.751Z,100455.03
2024-03-12T09:09:30.477Z,100453.44
2024-03-12T09:11:59.223Z,100456.69
2024-03-12T09:14:27.767Z,100458.22
2024-03-12T09:16:56.081Z,100464.19
2024-03-12T09:19:25.982Z,100478.66
2024-03-12T09:21:54.524Z,100470.47
2024-03-12T09:24:23.971Z,100478.41
2024-03-12T09:26:54.951Z,100476.28
2024-03-12T09:29:23.571Z,100481.16
2024-03-12T09:31:52.189Z,100484.09
2024-03-12T09:34:46.747Z,100487.97
2024-03-12T09:37:17.137Z,100482.06
2024-03-12T09:39:45.845Z,100485.97
2024-03-12T09:42:18.276Z,100498.47
2024-03-12T09:44:47.869Z,100488.31
2024-03-12T09:47:16.449Z,100496.28
2024-03-12T09:49:45.174Z,100492.72
2024-03-12T09:52:14.892Z,100500.72
2024-03-12T09:54:50.061Z,100500.78
2024-03-12T09:57:19.176Z,100504.81
2024-03-12T09:59:47.625Z,100499.59
2024-03-12T10:02:20.222Z,100504.09
2024-03-12T10:04:50.504Z,100502.56
2024-03-12T10:07:19.053Z,100502.75
2024-03-12T10:09:47.627Z,100499.25
2024-03-12T10:12:20.392Z,100510.84
2024-03-12T10:14:48.941Z,100514.25
2024-03-12T10:17:18.632Z,100505.59
2024-03-12T10:19:50.144Z,100503.75
2024-03-12T10:22:23.349Z,100515.88
2024-03-12T10:25:11.539Z,100518.47
2024-03-12T10:30:27.660Z,100524.59
2024-03-12T10:32:56.848Z,100516.88
2024-03-12T10:35:25.249Z,100514.19
2024-03-12T10:37:53.731Z,100521.81
2024-03-12T10:40:24.420Z,100518.19
2024-03-12T10:43:02.713Z,100523.53
2024-03-12T10:45:31.310Z,100527.31
2024-03-12T10:48:00.962Z,100526.22
2024-03-12T10:50:29.352Z,100523.63
2024-03-12T10:52:58.380Z,100532.44
2024-03-12T10:55:27.974Z,100529.19
2024-03-12T10:57:56.507Z,100541.09
2024-03-12T11:00:29.595Z,100538.56
2024-03-12T11:02:58.809Z,100537.53
2024-03-12T11:05:28.896Z,100542.69
2024-03-12T11:07:59.110Z,100539.59
2024-03-12T11:10:34.321Z,100550.03
2024-03-12T11:13:08.933Z,100547.78
2024-03-12T11:15:37.721Z,100540.81
2024-03-12T11:18:06.578Z,100540.19
2024-03-12T11:20:40.638Z,100545.94
2024-03-12T11:23:09.533Z,100550.84
2024-03-12T11:25:40.776Z,100545.78
2024-03-12T11:28:22.047Z,100550.59
2024-03-12T11:31:02.174Z,100554.59
2024-03-12T11:33:42.365Z,100555.03
2024-03-12T11:36:27.297Z,100554.63
2024-03-12T11:38:58.810Z,100556.53
2024-03-12T11:42:07.964Z,100559.63
2024-03-12T11:44:56.622Z,100560.56
2024-03-12T11:47:37.770Z,100561.09
2024-03-12T11:50:35.935Z,100568.59
2024-03-12T11:53:23.542Z,100570.31
2024-03-12T11:56:09.108Z,100570.50
2024-03-12T11:58:45.753Z,100562.28
2024-03-12T12:01:25.927Z,100570.19
2024-03-12T12:04:10.820Z,100573.28
2024-03-12T12:06:39.346Z,100574.91
2024-03-12T12:09:10.068Z,100587.38
2024-03-12T12:11:53.018Z,100582.63
2024-03-12T12:14:38.021Z,100585.03
2024-03-12T12:17:06.611Z,100583.00
2024-03-12T12:19:38.712Z,100583.19
2024-03-12T12:22:11.323Z,100587.88
2024-03-12T12:24:40.463Z,100582.59
2024-03-12T12:27:08.859Z,100584.19
2024-03-12T12:29:37.602Z,100574.28
2024-03-12T12:32:06.759Z,100581.31
2024-03-12T12:34:36.211Z,100575.50
2024-03-12T12:37:10.793Z,100579.28
2024-03-12T12:39:47.416Z,100582.75
2024-03-12T12:42:22.685Z,100581.41
2024-03-12T12:44:54.781Z,100582.59
2024-03-12T12:47:23.899Z,100588.78
2024-03-12T12:49:55.388Z,100580.09
2024-03-12T12:52:24.566Z,100582.03
2024-03-12T12:55:00.216Z,100583.09
2024-03-12T12:57:35.735Z,100586.03
2024-03-12T13:00:16.306Z,100596.59
2024-03-12T13:02:47.212Z,100599.00
2024-03-12T13:05:22.844Z,100599.16
2024-03-12T13:07:51.306Z,100595.97
2024-03-12T13:10:20.169Z,100593.56
2024-03-12T13:12:50.614Z,100595.06
2024-03-12T13:15:35.499Z,100600.41
2024-03-12T13:18:05.827Z,100593.78
2024-03-12T13:20:59.510Z,100600.56
2024-03-12T13:23:29.780Z,100604.16
2024-03-12T13:26:02.521Z,100604.00
2024-03-12T13:28:31.839Z,100606.50
2024-03-12T13:31:00.418Z,100605.03
2024-03-12T13:33:30.758Z,100606.47
2024-03-12T13:36:00.135Z,100610.53
2024-03-12T13:38:28.567Z,100608.88
2024-03-12T13:40:57.045Z,100607.56
2024-03-12T13:43:30.783Z,100605.72
2024-03-12T13:45:59.624Z,100612.84
2024-03-12T13:48:29.141Z,100614.09
2024-03-12T13:51:05.343Z,100605.38
2024-03-12T13:53:33.682Z,100614.41
2024-03-12T13:56:04.212Z,100617.78
2024-03-12T13:58:33.055Z,100614.09
2024-03-12T14:01:01.608Z,100619.31
2024-03-12T14:03:30.673Z,100624.72
2024-03-12T14:06:00.413Z,100626.69
2024-03-12T14:08:29.306Z,100626.53
2024-03-12T14:10:58.476Z,100632.84
2024-03-12T14:13:42.456Z,100625.75
2024-03-12T14:16:11.423Z,100626.25
2024-03-12T14:18:55.290Z,100634.50
2024-03-12T14:21:23.623Z,100633.53
2024-03-12T14:23:53.515Z,100630.31
2024-03-12T14:26:22.307Z,100634.16
2024-03-12T14:28:50.625Z,100635.34
2024-03-12T14:31:19.875Z,100641.81
2024-03-12T14:33:49.068Z,100634.19
2024-03-12T14:36:18.014Z,100632.66
2024-03-12T14:38:47.506Z,100635.16
2024-03-12T14:41:18.028Z,100628.31
2024-03-12T14:43:46.342Z,100637.09
2024-03-12T14:46:20.872Z,100630.56
2024-03-12T14:48:53.459Z,100632.94
2024-03-12T14:51:21.921Z,100632.81
2024-03-12T14:53:54.873Z,100634.47
2024-03-12T14:56:23.159Z,100637.41
2024-03-12T14:58:51.479Z,100643.47
2024-03-12T15:01:19.937Z,100646.72
2024-03-12T15:03:48.261Z,100645.22
2024-03-12T15:06:18.717Z,100645.31
2024-03-12T15:08:47.061Z,100644.56
2024-03-12T15:11:15.502Z,100645.59
2024-03-12T15:13:44.403Z,100646.81
2024-03-12T15:16:15.481Z,100640.00
2024-03-12T15:18:43.843Z,100642.16
2024-03-12T15:21:12.225Z,100636.22
2024-03-12T15:23:40.614Z,100640.31
2024-03-12T15:26:10.090Z,100644.91
2024-03-12T15:28:38.537Z,100646.00
2024-03-12T15:31:07.064Z,100642.56
2024-03-12T15:33:35.833Z,100637.97
2024-03-12T15:36:06.107Z,100636.69
2024-03-12T15:38:34.938Z,100630.38
2024-03-12T15:41:03.712Z,100634.97
2024-03-12T15:43:39.394Z,100629.97
2024-03-12T15:46:07.938Z,100625.16
2024-03-12T15:49:01.730Z,100633.13
2024-03-12T15:51:44.178Z,100634.56
2024-03-12T15:54:38.647Z,100637.94
2024-03-12T15:57:09.696Z,100634.16
2024-03-12T15:59:38.443Z,100636.41
2024-03-12T16:02:06.959Z,100633.75
2024-03-12T16:04:35.436Z,100637.63
2024-03-12T16:07:05.959Z,100643.56
2024-03-12T16:09:35.699Z,100647.56
2024-03-12T16:12:29.962Z,100637.84
2024-03-12T16:15:07.057Z,100632.13
2024-03-12T16:17:37.156Z,100639.47
2024-03-12T16:20:20.555Z,100633.53
2024-03-12T16:22:49.085Z,100640.28
2024-03-12T16:25:56.489Z,100633.75
2024-03-12T16:28:24.948Z,100637.03
2024-03-12T16:30:53.335Z,100632.00
2024-03-12T16:33:22.022Z,100628.41
2024-03-12T16:35:50.812Z,100625.34
2024-03-12T16:38:22.754Z,100625.47
2024-03-12T16:40:57.135Z,100621.69
2024-03-12T16:43:27.090Z,100629.03
2024-03-12T16:45:55.528Z,100620.63
2024-03-12T16:48:47.646Z,100619.53
2024-03-12T16:51:16.308Z,100617.78
2024-03-12T16:53:44.713Z,100628.41
2024-03-12T16:56:24.946Z,100631.69
2024-03-12T16:58:54.539Z,100629.13
2024-03-12T17:01:23.426Z,100623.50
2024-03-12T17:04:02.751Z,100632.38
2024-03-12T17:06:35.762Z,100627.38
2024-03-12T17:09:06.524Z,100632.53
2024-03-12T17:12:00.270Z,100627.50
2024-03-12T17:14:48.527Z,100630.69
2024-03-12T17:17:25.556Z,100635.16
2024-03-12T17:19:55.108Z,100637.09
2024-03-12T17:22:26.577Z,100651.13
2024-03-12T17:24:55.367Z,100642.53
2024-03-12T17:27:25.072Z,100646.75
2024-03-12T17:29:54.963Z,100650.13
2024-03-12T17:32:24.827Z,100655.16
2024-03-12T17:34:53.628Z,100652.13
2024-03-12T17:37:26.074Z,100648.47
2024-03-12T17:39:56.912Z,100656.03
2024-03-12T17:42:25.660Z,100654.84
2024-03-12T17:44:54.335Z,100652.88
2024-03-12T17:47:24.469Z,100649.50
2024-03-12T17:49:54.972Z,100654.13
2024-03-12T17:52:36.218Z,100656.56
2024-03-12T17:55:05.295Z,100650.22
2024-03-12T17:57:35.945Z,100649.78
2024-03-12T18:00:10.146Z,100649.97
2024-03-12T18:02:44.521Z,100656.38
2024-03-12T18:05:16.990Z,100652.38
2024-03-12T18:07:47.845Z,100655.31
2024-03-12T18:10:19.398Z,100660.69
2024-03-12T18:12:49.007Z,100647.63
2024-03-12T18:15:18.066Z,100661.19
2024-03-12T18:17:48.565Z,100656.19
2024-03-12T18:20:28.699Z,100648.88
2024-03-12T18:22:57.626Z,100655.75
2024-03-12T18:25:27.384Z,100656.13
2024-03-12T18:27:56.740Z,100663.91
2024-03-12T18:30:26.603Z,100659.50
2024-03-12T18:32:55.718Z,100655.38
2024-03-12T18:35:24.924Z,100646.88
2024-03-12T18:37:53.614Z,100656.81
2024-03-12T18:40:23.127Z,100662.63
2024-03-12T18:42:52.250Z,100664.56
2024-03-12T18:45:23.796Z,100662.31
2024-03-12T18:47:56.737Z,100658.22
2024-03-12T18:50:25.808Z,100653.81
2024-03-12T18:52:55.250Z,100657.09
2024-03-12T18:55:24.378Z,100659.34
2024-03-12T18:57:53.525Z,100659.03
2024-03-12T19:00:24.522Z,100665.06
2024-03-12T19:02:54.785Z,100657.09
2024-03-12T19:05:25.585Z,100660.44
2024-03-12T19:07:56.260Z,100658.28
2024-03-12T19:10:29.825Z,100661.13
2024-03-12T19:12:59.924Z,100663.94
2024-03-12T19:15:36.759Z,100668.41
2024-03-12T19:18:14.440Z,100665.28
2024-03-12T19:20:43.381Z,100663.41
2024-03-12T19:23:12.347Z,100667.34
2024-03-12T19:25:40.763Z,100665.44
2024-03-12T19:28:09.224Z,100671.63
2024-03-12T19:30:38.041Z,100665.63
2024-03-12T19:33:09.570Z,100661.06
2024-03-12T19:35:43.018Z,100665.78
2024-03-12T19:38:11.798Z,100662.00
2024-03-12T19:40:42.139Z,100656.00
2024-03-12T19:43:10.950Z,100659.41
2024-03-12T19:45:42.169Z,100661.13
2024-03-12T19:48:13.508Z,100657.84
2024-03-12T19:50:42.339Z,100664.03
2024-03-12T19:53:10.680Z,100658.34
2024-03-12T19:55:42.811Z,100658.16
2024-03-12T19:58:11.176Z,100655.19
2024-03-12T20:00:41.239Z,100659.34
2024-03-12T20:03:12.902Z,100652.22
2024-03-12T20:05:41.833Z,100655.59
2024-03-12T20:08:10.960Z,100652.34
2024-03-12T20:10:40.126Z,100645.25
2024-03-12T20:13:10.414Z,100647.47
2024-03-12T20:15:44.373Z,100640.41
2024-03-12T20:18:13.632Z,100641.81
2024-03-12T20:20:44.112Z,100640.22
2024-03-12T20:23:12.688Z,100638.03
2024-03-12T20:25:41.493Z,100644.13
2024-03-12T20:28:12.721Z,100646.09
2024-03-12T20:30:43.563Z,100645.56
2024-03-12T20:33:14.285Z,100641.22
2024-03-12T20:35:43.978Z,100639.84
2024-03-12T20:38:15.030Z,100636.56
2024-03-12T20:40:44.175Z,100634.94
2024-03-12T20:43:13.088Z,100633.03
2024-03-12T20:45:42.141Z,100628.13
2024-03-12T20:48:11.671Z,100628.41
2024-03-12T20:50:41.305Z,100636.09
2024-03-12T20:53:11.470Z,100630.31
2024-03-12T20:55:40.215Z,100633.34
2024-03-12T20:58:08.628Z,100630.59
2024-03-12T21:00:38.579Z,100627.03
2024-03-12T21:03:10.267Z,100624.28
2024-03-12T21:05:40.005Z,100620.47
2024-03-12T21:08:08.518Z,100619.91
2024-03-12T21:10:38.792Z,100611.91
2024-03-12T21:13:07.285Z,100612.19
2024-03-12T21:15:36.293Z,100610.50
2024-03-12T21:18:07.006Z,100619.84
2024-03-12T21:20:35.752Z,100619.28
2024-03-12T21:23:09.584Z,100609.16
2024-03-12T21:25:38.757Z,100602.00
2024-03-12T21:28:07.212Z,100602.28
2024-03-12T21:30:37.237Z,100608.63
2024-03-12T21:33:05.701Z,100604.50
2024-03-12T21:35:35.081Z,100609.16
2024-03-12T21:38:03.664Z,100614.66
2024-03-12T21:40:35.883Z,100617.97
2024-03-12T21:43:05.439Z,100612.47
2024-03-12T21:45:36.491Z,100612.50
2024-03-12T21:48:08.064Z,100618.28
2024-03-12T21:50:36.704Z,100616.63
2024-03-12T21:53:08.722Z,100611.69
2024-03-12T21:55:38.984Z,100615.03
2024-03-12T21:58:08.691Z,100613.09
2024-03-12T22:00:37.125Z,100623.84
2024-03-12T22:03:05.751Z,100618.34
2024-03-12T22:05:36.155Z,100623.84
2024-03-12T22:08:06.162Z,100614.75
2024-03-12T22:10:35.410Z,100609.00
2024-03-12T22:13:04.194Z,100627.69
2024-03-12T22:15:32.659Z,100621.09
2024-03-12T22:18:01.909Z,100624.94
2024-03-12T22:20:30.594Z,100629.06
2024-03-12T22:22:59.304Z,100622.75
2024-03-12T22:25:27.915Z,100618.09
2024-03-12T22:27:57.241Z,100626.63
2024-03-12T22:30:25.804Z,100625.50
2024-03-12T22:32:54.119Z,100623.91
2024-03-12T22:35:22.627Z,100620.31
2024-03-12T22:37:51.397Z,100625.53
2024-03-12T22:40:20.646Z,100623.91
2024-03-12T22:42:49.534Z,100625.28
2024-03-12T22:45:18.326Z,100622.00
2024-03-12T22:47:47.025Z,100618.41
2024-03-12T22:50:15.897Z,100616.50
2024-03-12T22:52:48.016Z,100617.88
2024-03-12T22:55:17.062Z,100619.53
2024-03-12T22:57:45.955Z,100614.59
2024-03-12T23:00:30.123Z,100614.59
2024-03-12T23:03:02.293Z,100612.38
2024-03-12T23:05:35.217Z,100618.16
2024-03-12T23:08:09.375Z,100620.09
2024-03-12T23:10:46.997Z,100623.63
2024-03-12T23:13:17.230Z,100619.81
2024-03-12T23:15:46.128Z,100613.53
2024-03-12T23:18:14.714Z,100618.44
2024-03-12T23:20:46.160Z,100619.53
2024-03-12T23:23:16.759Z,100612.94
2024-03-12T23:25:45.408Z,100627.19
2024-03-12T23:28:14.274Z,100617.34
2024-03-12T23:30:45.764Z,100621.72
2024-03-12T23:33:15.028Z,100618.16
2024-03-12T23:35:43.621Z,100621.97
2024-03-12T23:38:12.739Z,100620.63
2024-03-12T23:40:42.029Z,100620.06
2024-03-12T23:43:11.682Z,100619.53
2024-03-12T23:45:40.450Z,100616.50
2024-03-12T23:48:08.938Z,100612.41
2024-03-12T23:50:37.350Z,100609.09
2024-03-12T23:53:06.716Z,100606.91
2024-03-12T23:55:35.434Z,100612.66
2024-03-12T23:58:05.169Z,100622.50
